Airport View

Enter AWOS ICAO identifier for current METAR.

ex. KFNL

KEYF 210050Z AUTO 00000KT 10SM CLR 19/15 A3028 RMK AO2 T01910151

21 Sep 2019 00:54

Frequency: 119.475

Phone: 910-862-9982

Other Area AWOS: KCPC - KLBT - KCTZ - KFAY

TAF KLBT 202320Z 2100/2124 00000KT P6SM SKC FM211800 16004KT P6SM SKC AMD NOT SKED